Time;durP1;ratioP1;P1;durP2;ratioP2;P2;SDS_P1;SDS_P2;PMS_P1;PMS_P2;Temp;Humidity;BMP_temperature;BMP_pressure;BME280_temperature;BME280_humidity;BME280_pressure;Samples;Min_cycle;Max_cycle;Signal;HPM_P1;HPM_P2
2021/12/21 13:46:18;;;;;;;28.63;13.93;;;;;;;;;;5118863;27;20114;-76
2021/12/21 13:48:50;;;;;;;29.85;13.95;;;;;;;;;;5103990;28;20634;-73
2021/12/21 13:51:17;;;;;;;25.10;13.88;;;;;;;;;;5104663;28;20050;-72
2021/12/21 13:53:48;;;;;;;24.17;14.25;;;;;;;;;;5108634;28;20032;-75
2021/12/21 13:56:18;;;;;;;26.83;13.90;;;;;;;;;;5109544;28;20068;-73
2021/12/21 13:58:45;;;;;;;25.63;13.73;;;;;;;;;;5107206;28;20055;-76
2021/12/21 14:01:21;;;;;;;27.75;14.48;;;;;;;;;;5111570;28;20483;-79
2021/12/21 14:03:51;;;;;;;24.20;12.68;;;;;;;;;;5112019;28;20054;-78
2021/12/21 14:06:21;;;;;;;25.38;13.07;;;;;;;;;;5110417;28;20494;-79
2021/12/21 14:08:49;;;;;;;23.63;12.95;;;;;;;;;;5110996;28;20034;-77
2021/12/21 14:11:15;;;;;;;25.23;12.50;;;;;;;;;;5111327;28;20030;-76
2021/12/21 14:13:46;;;;;;;26.17;13.70;;;;;;;;;;5089615;28;20079;-75
2021/12/21 14:16:17;;;;;;;26.13;12.93;;;;;;;;;;5110500;28;20073;-74
2021/12/21 14:18:47;;;;;;;22.13;13.00;;;;;;;;;;5112798;28;20020;-75
2021/12/21 14:21:14;;;;;;;24.13;13.25;;;;;;;;;;5106486;28;20518;-75
2021/12/21 14:23:42;;;;;;;22.02;12.05;;;;;;;;;;5108674;28;20875;-74
2021/12/21 14:26:33;;;;;;;22.88;11.95;;;;;;;;;;5112910;28;20051;-75
2021/12/21 14:29:01;;;;;;;25.17;12.60;;;;;;;;;;5097181;28;20101;-70
2021/12/21 14:31:38;;;;;;;25.55;13.10;;;;;;;;;;5114912;28;20077;-70
2021/12/21 14:34:04;;;;;;;24.63;13.27;;;;;;;;;;5114057;28;20032;-70
2021/12/21 14:36:33;;;;;;;31.42;13.02;;;;;;;;;;5110087;28;20039;-70
2021/12/21 14:39:07;;;;;;;20.13;11.82;;;;;;;;;;5105864;28;20027;-71
2021/12/21 14:41:35;;;;;;;23.02;12.23;;;;;;;;;;5109492;28;20016;-70
2021/12/21 14:44:06;;;;;;;19.92;11.63;;;;;;;;;;5110329;28;20030;-70
2021/12/21 14:46:34;;;;;;;23.92;12.68;;;;;;;;;;5092684;28;20097;-70
2021/12/21 14:49:01;;;;;;;23.45;12.98;;;;;;;;;;5112393;28;20071;-70
2021/12/21 14:51:30;;;;;;;26.92;13.57;;;;;;;;;;5109382;28;20044;-71
2021/12/21 14:54:06;;;;;;;22.48;12.77;;;;;;;;;;5109747;28;20024;-71
2021/12/21 14:56:37;;;;;;;24.00;12.65;;;;;;;;;;5105141;28;20016;-71
2021/12/21 14:59:07;;;;;;;21.77;12.80;;;;;;;;;;5090922;28;20032;-71
2021/12/21 15:01:33;;;;;;;;;;;;;;;;;;5096360;28;20031;-70
2021/12/21 15:03:59;;;;;;;19.45;11.20;;;;;;;;;;5095866;28;19908;-70
2021/12/21 15:06:25;;;;;;;21.75;11.30;;;;;;;;;;5094681;28;20034;-70
2021/12/21 15:08:52;;;;;;;19.40;11.07;;;;;;;;;;5096174;28;20020;-70
2021/12/21 15:11:26;;;;;;;21.65;11.45;;;;;;;;;;5094219;28;20398;-70
2021/12/21 15:13:52;;;;;;;18.75;10.43;;;;;;;;;;5092197;28;20135;-71
2021/12/21 15:16:18;;;;;;;19.35;12.23;;;;;;;;;;5084742;28;20147;-71
2021/12/21 15:18:44;;;;;;;22.65;11.93;;;;;;;;;;5093683;28;20062;-71
2021/12/21 15:21:10;;;;;;;21.30;11.65;;;;;;;;;;5090524;28;20036;-71
2021/12/21 15:23:37;;;;;;;20.67;12.23;;;;;;;;;;5078173;28;20471;-70
2021/12/21 15:26:03;;;;;;;18.75;11.40;;;;;;;;;;5092423;28;20051;-70
2021/12/21 15:28:29;;;;;;;23.55;12.52;;;;;;;;;;5094753;28;20028;-71
2021/12/21 15:30:55;;;;;;;19.83;11.70;;;;;;;;;;5099790;28;20032;-70
2021/12/21 15:33:21;;;;;;;19.90;12.05;;;;;;;;;;5099333;28;20026;-71
2021/12/21 15:35:47;;;;;;;20.02;11.32;;;;;;;;;;5089296;28;20035;-71
2021/12/21 15:38:13;;;;;;;23.15;12.60;;;;;;;;;;5098382;28;20619;-70
2021/12/21 15:40:40;;;;;;;24.75;11.90;;;;;;;;;;5097701;28;20397;-72
2021/12/21 15:43:07;;;;;;;18.15;11.15;;;;;;;;;;5101555;28;20036;-72
2021/12/21 15:45:34;;;;;;;19.67;11.27;;;;;;;;;;5093819;28;20051;-71
2021/12/21 15:48:00;;;;;;;20.23;11.52;;;;;;;;;;5093699;28;20024;-71
2021/12/21 15:50:28;;;;;;;23.15;12.25;;;;;;;;;;5097835;28;20165;-71
2021/12/21 15:52:55;;;;;;;22.25;11.55;;;;;;;;;;5081218;28;20025;-71
2021/12/21 15:55:21;;;;;;;21.60;12.32;;;;;;;;;;5094919;28;20463;-72
2021/12/21 15:57:48;;;;;;;19.75;11.75;;;;;;;;;;5097772;28;20069;-71
2021/12/21 16:00:15;;;;;;;20.65;11.82;;;;;;;;;;5098227;28;20122;-71
2021/12/21 16:02:41;;;;;;;19.85;11.77;;;;;;;;;;5095420;28;20038;-70
2021/12/21 16:05:08;;;;;;;18.77;12.20;;;;;;;;;;5093960;28;20043;-71
2021/12/21 16:07:34;;;;;;;21.63;11.35;;;;;;;;;;5087833;28;20102;-71
2021/12/21 16:10:01;;;;;;;19.55;11.82;;;;;;;;;;5095303;28;20076;-71
2021/12/21 16:12:27;;;;;;;24.35;11.85;;;;;;;;;;5092195;28;20022;-71
2021/12/21 16:14:53;;;;;;;22.27;12.18;;;;;;;;;;5089927;28;20222;-71
2021/12/21 16:17:19;;;;;;;22.75;12.38;;;;;;;;;;5093373;28;20047;-71
2021/12/21 16:19:46;;;;;;;22.90;11.70;;;;;;;;;;5093239;28;20051;-71
2021/12/21 16:22:12;;;;;;;23.83;13.15;;;;;;;;;;5098500;28;20024;-70
2021/12/21 16:24:42;;;;;;;21.20;12.00;;;;;;;;;;5098951;28;20040;-70
2021/12/21 16:27:09;;;;;;;21.42;12.90;;;;;;;;;;5094741;28;20023;-70
2021/12/21 16:29:35;;;;;;;22.50;13.73;;;;;;;;;;5096958;28;20455;-70
2021/12/21 16:32:01;;;;;;;23.75;13.95;;;;;;;;;;5099585;28;20028;-70
2021/12/21 16:34:27;;;;;;;24.58;14.02;;;;;;;;;;5098916;28;20031;-70
2021/12/21 16:36:53;;;;;;;23.90;13.20;;;;;;;;;;5099754;28;20073;-69
2021/12/21 16:39:20;;;;;;;21.38;12.70;;;;;;;;;;5092740;28;20024;-69
2021/12/21 16:41:46;;;;;;;23.75;13.30;;;;;;;;;;5096051;28;20034;-70
2021/12/21 16:44:12;;;;;;;21.10;11.70;;;;;;;;;;5095287;28;20094;-70
2021/12/21 16:46:39;;;;;;;21.63;12.48;;;;;;;;;;5096539;28;20158;-70
2021/12/21 16:49:05;;;;;;;24.45;12.88;;;;;;;;;;5101759;28;20587;-70
2021/12/21 16:51:31;;;;;;;26.42;12.60;;;;;;;;;;5097426;28;20040;-70
2021/12/21 16:53:58;;;;;;;26.08;13.73;;;;;;;;;;5098543;28;20027;-70
2021/12/21 16:56:24;;;;;;;23.23;13.38;;;;;;;;;;5096314;28;20020;-71
2021/12/21 16:58:51;;;;;;;21.63;12.55;;;;;;;;;;5096173;28;20020;-72
2021/12/21 17:01:17;;;;;;;22.48;13.02;;;;;;;;;;5099232;28;20035;-72
2021/12/21 17:03:43;;;;;;;20.15;12.48;;;;;;;;;;5098408;28;20027;-70
2021/12/21 17:06:11;;;;;;;21.90;12.43;;;;;;;;;;5091906;28;20441;-71
2021/12/21 17:08:43;;;;;;;23.05;12.85;;;;;;;;;;5090959;28;20043;-71
2021/12/21 17:11:10;;;;;;;24.80;13.70;;;;;;;;;;5091832;28;20059;-70
2021/12/21 17:13:37;;;;;;;25.67;14.55;;;;;;;;;;5093963;28;20081;-71
2021/12/21 17:16:03;;;;;;;23.67;14.32;;;;;;;;;;5097263;28;20040;-71
2021/12/21 17:18:29;;;;;;;26.88;14.77;;;;;;;;;;5090558;28;20028;-71
2021/12/21 17:20:55;;;;;;;26.88;14.35;;;;;;;;;;5090721;28;20198;-69
2021/12/21 17:23:22;;;;;;;25.85;14.77;;;;;;;;;;5093692;28;20024;-69
2021/12/21 17:25:48;;;;;;;24.73;14.18;;;;;;;;;;5082272;28;20032;-68
2021/12/21 17:28:16;;;;;;;23.67;12.98;;;;;;;;;;5097948;28;20026;-68
2021/12/21 17:30:42;;;;;;;22.25;13.75;;;;;;;;;;5094745;28;20402;-68
2021/12/21 17:33:12;;;;;;;25.45;14.80;;;;;;;;;;5097217;28;20145;-68
2021/12/21 17:35:39;;;;;;;27.85;15.45;;;;;;;;;;5091599;28;20024;-70
2021/12/21 17:38:05;;;;;;;23.95;14.13;;;;;;;;;;5088780;28;20083;-69
2021/12/21 17:40:31;;;;;;;29.52;15.73;;;;;;;;;;5077875;28;20028;-71
2021/12/21 17:42:59;;;;;;;26.75;15.43;;;;;;;;;;5083096;28;20444;-68
2021/12/21 17:45:26;;;;;;;29.50;14.73;;;;;;;;;;5091180;28;20120;-68
2021/12/21 17:47:52;;;;;;;27.40;15.57;;;;;;;;;;5090376;28;20082;-70
2021/12/21 17:50:19;;;;;;;27.88;15.35;;;;;;;;;;5089497;28;20509;-70
2021/12/21 17:52:45;;;;;;;27.08;15.90;;;;;;;;;;5088296;28;20019;-71
2021/12/21 17:55:11;;;;;;;30.20;15.73;;;;;;;;;;5090913;28;20039;-71
2021/12/21 17:57:37;;;;;;;26.77;14.13;;;;;;;;;;5089093;28;20078;-70
2021/12/21 18:00:05;;;;;;;26.70;14.10;;;;;;;;;;5095445;28;20032;-76
2021/12/21 18:02:31;;;;;;;26.80;14.00;;;;;;;;;;5096001;28;20028;-73
2021/12/21 18:04:57;;;;;;;25.23;14.13;;;;;;;;;;5091756;28;20036;-74
2021/12/21 18:07:23;;;;;;;26.40;14.25;;;;;;;;;;5094180;28;20028;-75
2021/12/21 18:09:50;;;;;;;26.98;15.25;;;;;;;;;;5094654;28;20027;-74
2021/12/21 18:12:16;;;;;;;23.42;13.95;;;;;;;;;;5096139;28;20099;-75
2021/12/21 18:14:43;;;;;;;28.23;15.48;;;;;;;;;;5099191;28;20020;-74
2021/12/21 18:17:09;;;;;;;28.52;14.98;;;;;;;;;;5095649;28;20523;-74
2021/12/21 18:19:35;;;;;;;28.83;15.95;;;;;;;;;;5095593;28;20015;-74
2021/12/21 18:22:04;;;;;;;28.80;14.63;;;;;;;;;;5094663;28;20111;-75
2021/12/21 18:24:33;;;;;;;26.25;15.15;;;;;;;;;;5094964;28;20055;-74
2021/12/21 18:26:59;;;;;;;26.95;14.00;;;;;;;;;;5091423;28;20394;-75
2021/12/21 18:29:25;;;;;;;32.25;15.95;;;;;;;;;;5096621;28;20023;-74
2021/12/21 18:31:56;;;;;;;26.48;14.18;;;;;;;;;;5096336;28;20032;-73
2021/12/21 18:34:22;;;;;;;26.63;14.15;;;;;;;;;;5101581;28;20058;-74
2021/12/21 18:36:48;;;;;;;25.55;14.70;;;;;;;;;;5093822;28;20053;-73
2021/12/21 18:39:19;;;;;;;24.38;13.82;;;;;;;;;;5100174;28;20020;-74
2021/12/21 18:41:45;;;;;;;;;;;;;;;;;;5097687;28;20110;-72
2021/12/21 18:44:11;;;;;;;24.17;13.38;;;;;;;;;;5102185;28;20011;-73
2021/12/21 18:46:37;;;;;;;25.23;14.65;;;;;;;;;;5095837;28;20027;-73
2021/12/21 18:49:05;;;;;;;27.52;14.50;;;;;;;;;;5100332;28;20031;-73
2021/12/21 18:51:31;;;;;;;28.05;14.40;;;;;;;;;;5098915;28;20506;-73
2021/12/21 18:53:57;;;;;;;25.35;14.00;;;;;;;;;;5096960;28;20032;-74
2021/12/21 18:56:23;;;;;;;21.60;13.23;;;;;;;;;;5095698;28;20024;-74
2021/12/21 18:58:53;;;;;;;25.13;14.20;;;;;;;;;;5097754;28;20447;-75
2021/12/21 19:01:23;;;;;;;28.90;15.17;;;;;;;;;;5101408;28;20022;-75
2021/12/21 19:03:49;;;;;;;26.98;14.70;;;;;;;;;;5093502;28;20043;-74
2021/12/21 19:06:15;;;;;;;26.52;13.88;;;;;;;;;;5094630;28;20043;-75
2021/12/21 19:08:42;;;;;;;24.60;13.63;;;;;;;;;;5102414;28;20372;-75
2021/12/21 19:11:08;;;;;;;25.00;13.80;;;;;;;;;;5100369;28;20032;-74
2021/12/21 19:13:34;;;;;;;24.25;13.20;;;;;;;;;;5098951;28;20027;-75
2021/12/21 19:16:00;;;;;;;30.27;14.50;;;;;;;;;;5095700;28;20028;-75
2021/12/21 19:18:26;;;;;;;26.17;13.95;;;;;;;;;;5097091;28;20438;-74
2021/12/21 19:20:53;;;;;;;27.45;14.75;;;;;;;;;;5097986;28;20020;-75
2021/12/21 19:23:19;;;;;;;24.90;14.63;;;;;;;;;;5101569;28;20466;-75
2021/12/21 19:25:46;;;;;;;25.52;13.13;;;;;;;;;;5091400;28;20044;-74
2021/12/21 19:28:17;;;;;;;25.42;14.30;;;;;;;;;;5100224;28;20028;-74
2021/12/21 19:30:43;;;;;;;26.23;13.88;;;;;;;;;;5095574;28;20525;-74
2021/12/21 19:33:11;;;;;;;31.23;15.02;;;;;;;;;;5098727;28;20024;-73
2021/12/21 19:35:37;;;;;;;29.27;14.63;;;;;;;;;;5097805;28;20024;-73
2021/12/21 19:38:03;;;;;;;23.83;13.77;;;;;;;;;;5099361;28;20035;-73
2021/12/21 19:40:29;;;;;;;23.05;13.30;;;;;;;;;;5099048;28;20098;-73
2021/12/21 19:42:56;;;;;;;25.33;14.18;;;;;;;;;;5098388;28;20114;-74
2021/12/21 19:45:22;;;;;;;23.92;13.48;;;;;;;;;;5096720;28;20062;-73
2021/12/21 19:47:48;;;;;;;22.90;13.23;;;;;;;;;;5098570;28;20032;-73
2021/12/21 19:50:20;;;;;;;23.77;13.48;;;;;;;;;;5103929;28;20036;-74
2021/12/21 19:52:47;;;;;;;26.13;13.25;;;;;;;;;;5096733;28;20394;-73
2021/12/21 19:55:13;;;;;;;23.77;12.75;;;;;;;;;;5096681;28;20028;-74
2021/12/21 19:57:39;;;;;;;24.95;13.65;;;;;;;;;;5098688;28;20012;-74
2021/12/21 20:00:09;;;;;;;25.77;14.60;;;;;;;;;;5099077;28;20441;-74
2021/12/21 20:02:35;;;;;;;26.20;13.57;;;;;;;;;;5100795;28;20027;-74
2021/12/21 20:05:03;;;;;;;23.63;13.60;;;;;;;;;;5099739;28;20036;-74
2021/12/21 20:07:29;;;;;;;28.98;14.45;;;;;;;;;;5100445;28;20032;-74
2021/12/21 20:09:56;;;;;;;26.90;15.07;;;;;;;;;;5098666;28;20028;-74
2021/12/21 20:12:28;;;;;;;25.25;13.75;;;;;;;;;;5098827;28;20027;-74
2021/12/21 20:14:54;;;;;;;24.67;13.27;;;;;;;;;;5099433;28;20085;-74
2021/12/21 20:17:21;;;;;;;24.15;13.82;;;;;;;;;;5099853;28;20447;-74
2021/12/21 20:19:49;;;;;;;24.20;13.80;;;;;;;;;;5095978;28;20035;-73
2021/12/21 20:22:16;;;;;;;23.70;13.90;;;;;;;;;;5101502;28;20030;-74
2021/12/21 20:24:43;;;;;;;23.83;13.60;;;;;;;;;;5098264;28;20031;-74
2021/12/21 20:27:09;;;;;;;23.42;13.80;;;;;;;;;;5097772;28;20097;-74
2021/12/21 20:29:35;;;;;;;24.42;13.15;;;;;;;;;;5099690;28;20126;-74
2021/12/21 20:32:02;;;;;;;25.38;13.98;;;;;;;;;;5072921;28;20106;-74
2021/12/21 20:34:32;;;;;;;26.50;13.65;;;;;;;;;;5078849;28;20115;-71
2021/12/21 20:37:00;;;;;;;24.63;14.25;;;;;;;;;;5080628;28;20072;-74
2021/12/21 20:39:26;;;;;;;22.88;13.57;;;;;;;;;;5076618;28;20056;-71
2021/12/21 20:41:52;;;;;;;24.27;13.75;;;;;;;;;;5077191;28;20033;-75
2021/12/21 20:44:18;;;;;;;26.85;14.02;;;;;;;;;;5078830;28;20047;-71
2021/12/21 20:46:44;;;;;;;28.02;14.00;;;;;;;;;;5076517;28;20573;-74
2021/12/21 20:49:10;;;;;;;22.77;14.02;;;;;;;;;;5072408;28;20419;-73
2021/12/21 20:51:37;;;;;;;25.40;13.85;;;;;;;;;;5075737;28;20040;-75
2021/12/21 20:54:03;;;;;;;26.63;14.50;;;;;;;;;;5090231;28;20446;-80
2021/12/21 20:56:32;;;;;;;24.08;13.13;;;;;;;;;;5097357;28;20387;-76
2021/12/21 20:58:58;;;;;;;24.98;14.43;;;;;;;;;;5097401;28;20031;-82
2021/12/21 21:01:24;;;;;;;26.23;14.73;;;;;;;;;;5097593;28;20686;-79
2021/12/21 21:03:51;;;;;;;25.15;14.48;;;;;;;;;;5080116;28;20390;-76
2021/12/21 21:06:17;;;;;;;28.10;15.15;;;;;;;;;;5093734;28;20036;-76
2021/12/21 21:08:43;;;;;;;24.63;13.68;;;;;;;;;;5095067;28;20032;-73
2021/12/21 21:11:10;;;;;;;25.92;14.40;;;;;;;;;;5100748;28;20036;-75
2021/12/21 21:13:37;;;;;;;26.95;13.50;;;;;;;;;;5095700;28;20035;-75
2021/12/21 21:16:04;;;;;;;24.20;14.02;;;;;;;;;;5097331;28;20024;-75
2021/12/21 21:18:31;;;;;;;24.98;14.43;;;;;;;;;;5096790;28;20376;-75
2021/12/21 21:20:57;;;;;;;27.05;14.57;;;;;;;;;;5098385;28;20036;-74
2021/12/21 21:23:23;;;;;;;26.10;14.98;;;;;;;;;;5098952;28;20498;-72
2021/12/21 21:25:50;;;;;;;26.40;14.70;;;;;;;;;;5092960;28;20031;-73
2021/12/21 21:28:17;;;;;;;28.23;15.23;;;;;;;;;;5093134;28;20393;-74
2021/12/21 21:30:45;;;;;;;26.00;14.65;;;;;;;;;;5093014;28;21310;-73
2021/12/21 21:33:11;;;;;;;26.25;14.70;;;;;;;;;;5091352;28;20081;-72
2021/12/21 21:35:37;;;;;;;25.65;14.07;;;;;;;;;;5097655;28;20019;-73
2021/12/21 21:38:03;;;;;;;25.75;14.55;;;;;;;;;;5098664;28;20056;-73
2021/12/21 21:40:30;;;;;;;27.67;14.10;;;;;;;;;;5094926;28;20063;-74
2021/12/21 21:42:56;;;;;;;27.77;14.77;;;;;;;;;;5093858;28;20080;-73
2021/12/21 21:45:22;;;;;;;26.70;15.07;;;;;;;;;;5097344;28;20640;-75
2021/12/21 21:47:48;;;;;;;26.70;14.13;;;;;;;;;;5076490;28;20422;-74
2021/12/21 21:50:16;;;;;;;26.65;14.40;;;;;;;;;;5097818;28;20028;-74
2021/12/21 21:52:42;;;;;;;25.55;14.35;;;;;;;;;;5096810;28;20535;-74
2021/12/21 21:55:09;;;;;;;25.38;13.85;;;;;;;;;;5098391;28;20036;-74
2021/12/21 21:57:36;;;;;;;23.27;13.68;;;;;;;;;;5096644;28;20373;-73
2021/12/21 22:00:03;;;;;;;25.13;13.35;;;;;;;;;;5092410;28;20039;-73
2021/12/21 22:02:29;;;;;;;23.80;13.27;;;;;;;;;;5095446;28;20391;-72
2021/12/21 22:04:55;;;;;;;23.90;13.77;;;;;;;;;;5098897;28;20524;-74
2021/12/21 22:07:21;;;;;;;23.38;13.70;;;;;;;;;;5097234;28;20028;-75
2021/12/21 22:09:47;;;;;;;24.98;14.02;;;;;;;;;;5104254;28;20020;-73
2021/12/21 22:12:14;;;;;;;24.75;14.25;;;;;;;;;;5096646;28;20035;-74
2021/12/21 22:14:40;;;;;;;26.00;14.95;;;;;;;;;;5097859;28;20020;-73
2021/12/21 22:17:08;;;;;;;27.55;14.73;;;;;;;;;;5101675;28;20071;-72
2021/12/21 22:19:37;;;;;;;28.08;14.63;;;;;;;;;;5100681;28;20575;-74
2021/12/21 22:22:08;;;;;;;25.05;14.77;;;;;;;;;;5099289;28;20039;-74
2021/12/21 22:24:34;;;;;;;26.15;15.00;;;;;;;;;;5094300;28;20066;-74
2021/12/21 22:27:01;;;;;;;27.35;13.48;;;;;;;;;;5092796;28;20055;-75
2021/12/21 22:29:27;;;;;;;28.02;14.65;;;;;;;;;;5096644;28;20482;-74
2021/12/21 22:31:54;;;;;;;25.58;13.98;;;;;;;;;;5090363;28;20016;-75
2021/12/21 22:34:20;;;;;;;28.58;14.27;;;;;;;;;;5103503;28;20044;-73
2021/12/21 22:36:46;;;;;;;25.05;14.25;;;;;;;;;;5103688;28;20030;-73
2021/12/21 22:39:12;;;;;;;27.90;14.57;;;;;;;;;;5097796;28;20089;-75
2021/12/21 22:41:39;;;;;;;23.92;14.27;;;;;;;;;;5100354;28;20544;-74
2021/12/21 22:44:05;;;;;;;25.08;13.95;;;;;;;;;;5095812;28;20035;-73
2021/12/21 22:46:31;;;;;;;24.10;13.63;;;;;;;;;;5090949;28;20119;-73
2021/12/21 22:48:58;;;;;;;27.27;14.40;;;;;;;;;;5100814;28;20016;-73
2021/12/21 22:51:25;;;;;;;22.58;13.65;;;;;;;;;;5099770;28;20035;-73
2021/12/21 22:53:52;;;;;;;26.75;14.27;;;;;;;;;;5098848;28;20028;-73
2021/12/21 22:56:19;;;;;;;26.83;14.60;;;;;;;;;;5100963;28;20034;-73
2021/12/21 22:58:45;;;;;;;23.40;14.05;;;;;;;;;;5100312;28;20646;-73
2021/12/21 23:01:11;;;;;;;21.58;13.40;;;;;;;;;;5102067;28;20114;-73
2021/12/21 23:03:38;;;;;;;26.75;13.57;;;;;;;;;;5100067;28;20099;-74
2021/12/21 23:06:09;;;;;;;23.15;13.55;;;;;;;;;;5088487;28;20044;-76
2021/12/21 23:08:36;;;;;;;20.98;12.68;;;;;;;;;;5095354;28;20112;-75
